Abbott, Texas
Current Conditions -  °F | °C
As of 5:55 PM on Sunday 23 Nov 2014 (Local Time) from KINJ Reporting Station
Clear Clear  
Wind Chill: 66°   Ceiling: Unl
Heat Index: 66°   Visibility: 10mi
Dew Point: 39°   Wind: 10mph
Humidity: 36%   Direction: 310°NW
Pressure: 29.56"   Gusts: NA
Location:  31.88°N, 97.07°W
Report Text: KINJ 232355Z AUTO 31009KT 10SM CLR 19/04 A2956 RMK AO2 T01910038 10246 20191
Loading
Personal Weather Stations






























Interactive Weather Map New forecast layout! Learn more

10-Day Weather Forecast

Advertisements
Track Severe Weather on mobile